KAFF/AFF METAR and TAF weather

Enter ICAO airport designator
Station Type Date Time Source
KAFF METAR 2018/10/22 15:58 UTC NOAA

KAFF 221558Z AUTO 00000KT 8SM CLR 14/M05 A3025 RMK AO2 SLP211 T01371050


Station Type Date Time Source
KAFF Decoded METAR 2018/10/22 15:58 UTC NOAA

Air Force Academy, CO, United States (KAFF) 38-58N 104-49W 1999M
Oct 22, 2018 - 11:58 AM EDT / 2018.10.22 1558 UTC
Wind: Calm:0
Visibility: 8 mile(s):0
Sky conditions: clear
Temperature: 56.7 F (13.7 C)
Dew Point: 23.0 F (-5.0 C)
Relative Humidity: 26%
Pressure (altimeter): 30.25 in. Hg (1024 hPa)
ob: KAFF 221558Z AUTO 00000KT 8SM CLR 14/M05 A3025 RMK AO2 SLP211 T01371050
cycle: 16

Station Type Date Time Source
KAFF TAF 2018/10/22 11:09 UTC NOAA

TAF TAF KAFF 221106Z 2211/2317 36009KT 9999 SKC QNH3019INS
BECMG 2217/2218 15012G18KT 9999 SCT120 510009 QNH3016INS
BECMG 2304/2305 18009KT 9999 BKN050 QNH3026INS
BECMG 2308/2309 12012KT 6000 BR OVC010 QNH3024INS TX21/2222Z TNM01/2212Z


Example: see airport list